Wausau Downtown Airport
KAUW : now visible

Airfield :











YOU CAN JOIN US ON...

 
LOGIN :

Register | Disclaimer

   EN    FR    IT 

 









Legend :    VFR   Marginal VFR   IFR   Intensive IFR   Very Intensive IFR
Visi :
Ceiling :
>= 8 km
>= 3000ft
5 to 8 km
1000 to 3000 ft
1500m to 5 km
500 to 1000 ft
800 to 1500m
200 to 500 ft
< 800m
< 200 ft
Symbols :   Thunderstorms  Fog  Heavy snow  Heavy precipitations  Wind > 20 kt






- Airport Elevation : 1201 ft


KAUW - Wausau Downtown

CURRENT METAR :
  • 080854Z AUTO 07004KT 10SM OVC023 M09/M13 A3041 RMK AO2 SLP325 T10941133 58001

EXPIRED METARs :
  • 080754Z AUTO 05004KT 10SM OVC023 M09/M13 A3042 RMK AO2 SLP326 T10941128
  • 080654Z AUTO 03003KT 10SM BKN023 M09/M13 A3042 RMK AO2 SLP326 T10941128
  • 080650Z AUTO 00000KT 10SM BKN023 M09/M13 A3042 RMK AO2
  • 080637Z AUTO 00000KT 10SM FEW023 M09/M13 A3042 RMK AO2 T10941128

TAF KAUW
Valid from the 08 at 09:00 until the 09 at 06:00 UTC


080835Z 0809/0906 VRB03KT P6SM BKN023
FM081400 VRB03KT P6SM SCT022
FM081800 16004KT P6SM SCT250
FM090000 10004KT P6SM BKN200
KZMP FIR / North America



MET'MAP, your aeronautical weather chart ! - Copyright ORBIFLY December 2007 - Disclaimer

ORBIFLY MET'MAP TEAM :

Programming & Development : Alexandra Zaïnal
Original concept : Baudouin d'Aumeries
Technical & hardware support : Manuel Goepfert
Assistance : Marc-Olivier Méhu




SOURCES & CREDITS :

   NOAA       Earth
Advisory